Memphis, Mississippi
Current Conditions -  °F | °C
As of 9:54 AM on Friday 21 Nov 2014 (Local Time) from KMEM Reporting Station
Overcast Overcast  
Wind Chill: 40°   Ceiling: 2000
Heat Index: 44°   Visibility: 10mi
Dew Point: 39°   Wind: 8mph
Humidity: 82%   Direction: 110°ESE
Pressure: 30.35"   Gusts: NA
Location:  34.9578°N, 90.1057°W
Report Text: KMEM 211554Z 11007KT 10SM OVC020 07/04 A3035 RMK AO2 RAE54 SLP279 P0001 T00670039 $
Loading
Personal Weather Stations






























Interactive Weather Map New forecast layout! Learn more

10-Day Weather Forecast

Advertisements
Track Severe Weather on mobile